Hastings, West Virginia
Current Conditions -  °F | °C
As of 4:53 PM on Sunday 23 Nov 2014 (Local Time) from KCKB Reporting Station
Broken Clouds Broken Clouds  
Wind Chill: 60°   Ceiling: 12000
Heat Index: 60°   Visibility: 10mi
Dew Point: 41°   Wind: 15mph
Humidity: 49%   Direction: 150°SSE
Pressure: 29.83"   Gusts: 25mph
Location:  39.5697°N, 80.6462°W
Report Text: KCKB 232153Z 15013G22KT 10SM BKN120 16/05 A2983 RMK AO2 SLP098 T01560050
Loading
Personal Weather Stations






























Interactive Weather Map New forecast layout! Learn more

10-Day Weather Forecast

Advertisements
Track Severe Weather on mobile